createdAt,value
2018-06-29T00:02:29.213Z,5.47
2018-06-29T00:05:00.157Z,5.45
2018-06-29T00:07:30.667Z,5.65
2018-06-29T00:10:01.593Z,5.37
2018-06-29T00:12:34.864Z,5.33
2018-06-29T00:15:05.851Z,5.70
2018-06-29T00:17:36.802Z,5.35
2018-06-29T00:20:08.484Z,5.40
2018-06-29T00:22:39.044Z,6.12
2018-06-29T00:25:10.019Z,5.47
2018-06-29T00:27:40.834Z,5.20
2018-06-29T00:30:11.272Z,6.12
2018-06-29T00:32:41.754Z,6.85
2018-06-29T00:35:14.078Z,7.33
2018-06-29T00:37:44.624Z,10.95
2018-06-29T00:40:15.597Z,12.88
2018-06-29T00:42:46.266Z,12.30
2018-06-29T00:45:16.882Z,10.58
2018-06-29T00:47:46.834Z,10.95
2018-06-29T00:50:17.862Z,10.15
2018-06-29T00:52:48.275Z,9.18
2018-06-29T00:55:18.724Z,9.00
2018-06-29T00:57:52.045Z,8.50
2018-06-29T01:00:22.735Z,8.08
2018-06-29T01:02:53.815Z,7.90
2018-06-29T01:05:25.378Z,7.12
2018-06-29T01:07:56.425Z,6.33
2018-06-29T01:10:27.356Z,6.50
2018-06-29T01:14:12.941Z,7.20
2018-06-29T01:16:43.360Z,6.20
2018-06-29T01:19:14.606Z,6.95
2018-06-29T01:21:46.790Z,7.12
2018-06-29T01:24:17.334Z,6.55
2018-06-29T01:26:48.877Z,6.37
2018-06-29T01:29:20.003Z,6.20
2018-06-29T01:31:50.542Z,6.20
2018-06-29T01:34:21.386Z,5.70
2018-06-29T01:36:51.878Z,6.25
2018-06-29T01:39:22.520Z,6.33
2018-06-29T01:41:53.362Z,6.67
2018-06-29T01:44:24.148Z,6.75
2018-06-29T01:46:53.940Z,6.55
2018-06-29T01:49:24.759Z,7.33
2018-06-29T01:51:55.744Z,6.95
2018-06-29T01:54:26.417Z,6.70
2018-06-29T01:56:57.666Z,6.00
2018-06-29T01:59:30.248Z,5.97
2018-06-29T02:02:00.833Z,5.42
2018-06-29T02:04:31.365Z,6.83
2018-06-29T02:07:01.751Z,8.20
2018-06-29T02:09:32.074Z,8.08
2018-06-29T02:12:03.296Z,9.05
2018-06-29T02:14:34.658Z,8.15
2018-06-29T02:17:05.047Z,8.70
2018-06-29T02:19:35.739Z,7.97
2018-06-29T02:22:06.922Z,8.63
2018-06-29T02:24:37.600Z,8.75
2018-06-29T02:27:08.893Z,10.32
2018-06-29T02:29:39.550Z,11.15
2018-06-29T02:32:10.131Z,11.22
2018-06-29T02:34:41.195Z,12.55
2018-06-29T02:37:12.038Z,11.70
2018-06-29T02:39:43.167Z,13.05
2018-06-29T02:42:14.372Z,14.00
2018-06-29T02:44:44.972Z,9.53
2018-06-29T02:47:15.603Z,7.60
2018-06-29T02:49:48.138Z,6.97
2018-06-29T02:52:18.715Z,6.40
2018-06-29T02:54:49.000Z,4.15
2018-06-29T02:57:19.554Z,4.08
2018-06-29T02:59:50.324Z,3.70
2018-06-29T03:02:21.250Z,3.55
2018-06-29T03:04:54.147Z,3.80
2018-06-29T03:07:27.552Z,3.47
2018-06-29T03:09:58.998Z,3.55
2018-06-29T03:12:30.681Z,3.65
2018-06-29T03:15:04.419Z,4.10
2018-06-29T03:17:44.458Z,3.90
2018-06-29T03:20:22.055Z,3.95
2018-06-29T03:22:53.892Z,4.22
2018-06-29T03:25:24.668Z,3.95
2018-06-29T03:27:55.992Z,4.85
2018-06-29T03:30:28.287Z,5.42
2018-06-29T03:32:59.865Z,4.90
2018-06-29T03:35:34.553Z,5.55
2018-06-29T03:38:07.614Z,4.90
2018-06-29T03:40:43.104Z,4.97
2018-06-29T03:43:21.516Z,5.17
2018-06-29T03:46:06.767Z,4.80
2018-06-29T03:48:43.556Z,4.50
2018-06-29T03:51:20.287Z,4.15
2018-06-29T03:53:57.958Z,4.62
2018-06-29T03:56:28.386Z,4.60
2018-06-29T03:59:38.160Z,5.05
2018-06-29T04:02:09.974Z,4.83
2018-06-29T04:04:40.521Z,4.65
2018-06-29T04:07:11.512Z,4.55
2018-06-29T04:09:42.757Z,5.28
2018-06-29T04:12:14.161Z,5.55
2018-06-29T04:14:52.871Z,4.95
2018-06-29T04:17:46.700Z,5.50
2018-06-29T04:20:19.974Z,4.72
2018-06-29T04:22:51.101Z,5.03
2018-06-29T04:25:42.240Z,4.53
2018-06-29T04:28:33.481Z,4.72
2018-06-29T04:31:04.695Z,4.75
2018-06-29T04:34:27.521Z,6.80
2018-06-29T04:37:16.630Z,5.00
2018-06-29T04:39:46.901Z,5.00
2018-06-29T04:42:18.779Z,4.83
2018-06-29T04:44:52.030Z,4.65
2018-06-29T04:47:22.283Z,4.72
2018-06-29T04:50:10.480Z,4.85
2018-06-29T04:52:41.586Z,4.55
2018-06-29T04:55:13.453Z,4.55
2018-06-29T04:57:45.233Z,4.20
2018-06-29T05:05:01.108Z,3.83
2018-06-29T05:10:44.437Z,3.10
2018-06-29T05:13:15.007Z,3.00
2018-06-29T05:16:04.521Z,3.75
2018-06-29T05:19:02.270Z,3.40
2018-06-29T05:37:22.032Z,3.20
2018-06-29T05:40:01.591Z,2.60
2018-06-29T05:42:47.332Z,3.60
2018-06-29T05:45:17.952Z,3.00
2018-06-29T05:47:52.759Z,2.90
2018-06-29T05:50:51.840Z,2.77
2018-06-29T05:53:24.157Z,3.12
2018-06-29T05:55:57.663Z,3.35
2018-06-29T06:11:00.942Z,3.72
2018-06-29T06:13:35.012Z,3.15
2018-06-29T06:16:08.366Z,3.22
2018-06-29T06:18:38.824Z,3.40
2018-06-29T06:21:19.845Z,3.20
2018-06-29T06:24:03.532Z,4.33
2018-06-29T06:26:34.965Z,3.47
2018-06-29T06:29:11.728Z,3.15
2018-06-29T06:39:44.748Z,3.08
2018-06-29T06:42:36.027Z,3.15
2018-06-29T06:45:20.027Z,3.52
2018-06-29T06:48:10.864Z,2.77
2018-06-29T06:50:54.980Z,3.02
2018-06-29T06:54:50.209Z,3.30
2018-06-29T06:57:41.795Z,3.25
2018-06-29T07:00:15.168Z,4.33
2018-06-29T07:02:46.816Z,2.80
2018-06-29T07:05:17.692Z,2.72
2018-06-29T07:08:05.242Z,2.80
2018-06-29T07:23:06.766Z,3.22
2018-06-29T07:25:40.034Z,2.87
2018-06-29T07:35:07.843Z,3.25
2018-06-29T07:38:12.693Z,3.08
2018-06-29T09:28:44.499Z,3.30
2018-06-29T09:35:32.983Z,3.87
2018-06-29T09:45:09.546Z,3.33
2018-06-29T09:47:48.743Z,3.40
2018-06-29T09:58:11.156Z,3.17
2018-06-29T10:21:11.565Z,3.62
2018-06-29T10:24:00.129Z,3.30
2018-06-29T10:33:37.101Z,3.15
2018-06-29T10:36:22.322Z,2.80
2018-06-29T11:15:12.640Z,2.77
2018-06-29T11:24:22.289Z,2.50
2018-06-29T11:45:18.722Z,2.20
2018-06-29T11:47:59.598Z,2.30
2018-06-29T11:50:55.721Z,2.37
2018-06-29T11:54:01.687Z,2.12
2018-06-29T12:00:03.925Z,2.40
2018-06-29T12:23:22.014Z,1.92
2018-06-29T12:33:58.105Z,1.92
2018-06-29T12:37:57.969Z,2.08
2018-06-29T12:57:41.914Z,2.17
2018-06-29T13:26:15.668Z,1.80
2018-06-29T13:29:17.072Z,2.08
2018-06-29T13:31:57.807Z,1.92
2018-06-29T13:34:38.803Z,1.80
2018-06-29T14:02:10.580Z,1.57
2018-06-29T15:20:01.647Z,1.98
2018-06-29T15:22:33.998Z,2.37
2018-06-29T15:25:11.425Z,2.15
2018-06-29T15:34:28.424Z,2.37
2018-06-29T15:49:17.978Z,1.55
2018-06-29T15:52:08.709Z,1.52
2018-06-29T15:54:44.989Z,1.60
2018-06-29T15:57:20.923Z,1.45
2018-06-29T16:19:13.950Z,1.50
2018-06-29T16:22:11.488Z,1.60
2018-06-29T16:42:33.627Z,2.55
2018-06-29T16:46:59.915Z,1.87
2018-06-29T16:50:02.536Z,2.10
2018-06-29T16:55:57.661Z,2.37
2018-06-29T16:58:30.708Z,2.25
2018-06-29T17:07:28.487Z,3.00
2018-06-29T17:29:21.740Z,2.33
2018-06-29T17:32:34.480Z,2.92
2018-06-29T17:35:07.577Z,2.42
2018-06-29T17:37:42.897Z,2.00
2018-06-29T17:40:16.273Z,1.90
2018-06-29T17:42:48.764Z,1.85
2018-06-29T17:45:42.242Z,2.12
2018-06-29T17:54:02.101Z,1.98
2018-06-29T17:56:55.770Z,1.92
2018-06-29T18:00:00.036Z,1.98
2018-06-29T18:03:00.346Z,2.00
2018-06-29T18:06:00.858Z,2.47
2018-06-29T18:08:47.974Z,2.17
2018-06-29T18:11:37.473Z,2.20
2018-06-29T18:24:15.877Z,2.10
2018-06-29T18:30:06.309Z,2.00
2018-06-29T18:32:41.175Z,2.25
2018-06-29T18:35:23.635Z,2.15
2018-06-29T18:38:24.442Z,2.20
2018-06-29T18:40:55.791Z,2.10
2018-06-29T18:43:49.775Z,2.15
2018-06-29T18:46:36.990Z,2.65
2018-06-29T18:49:15.105Z,2.45
2018-06-29T18:51:53.577Z,2.50
2018-06-29T18:55:04.956Z,2.47
2018-06-29T18:57:38.518Z,2.80
2018-06-29T19:00:21.844Z,2.30
2018-06-29T19:06:18.489Z,2.22
2018-06-29T19:09:22.787Z,2.40
2018-06-29T19:12:20.158Z,2.37
2018-06-29T19:14:57.897Z,2.75
2018-06-29T19:28:25.405Z,2.00
2018-06-29T19:31:25.435Z,2.30
2018-06-29T19:34:06.660Z,2.20
2018-06-29T19:36:57.404Z,2.08
2018-06-29T19:54:09.270Z,3.52
2018-06-29T20:02:50.619Z,4.10
2018-06-29T20:08:34.598Z,3.83
2018-06-29T20:11:09.831Z,4.00
2018-06-29T20:13:50.485Z,3.80
2018-06-29T20:19:31.856Z,3.80
2018-06-29T20:22:23.101Z,3.45
2018-06-29T20:24:55.772Z,3.98
2018-06-29T20:27:33.818Z,3.33
2018-06-29T20:30:13.169Z,4.08
2018-06-29T20:32:58.834Z,3.98
2018-06-29T20:35:38.093Z,3.95
2018-06-29T20:44:42.174Z,3.65
2018-06-29T20:47:49.303Z,3.77
2018-06-29T20:50:21.877Z,4.50
2018-06-29T20:53:01.851Z,3.77
2018-06-29T20:55:34.354Z,3.65
2018-06-29T20:58:12.622Z,3.87
2018-06-29T21:00:44.788Z,3.67
2018-06-29T21:03:24.245Z,3.62
2018-06-29T21:05:58.462Z,4.50
2018-06-29T21:08:34.489Z,3.65
2018-06-29T21:11:08.681Z,4.03
2018-06-29T21:13:39.342Z,3.83
2018-06-29T21:16:16.223Z,4.30
2018-06-29T21:18:49.121Z,4.15
2018-06-29T21:21:22.486Z,4.08
2018-06-29T21:23:52.788Z,4.20
2018-06-29T21:26:23.103Z,4.10
2018-06-29T21:28:53.742Z,4.05
2018-06-29T21:31:26.763Z,4.55
2018-06-29T21:34:00.181Z,5.28
2018-06-29T21:36:30.841Z,5.22
2018-06-29T21:39:05.343Z,5.20
2018-06-29T21:41:38.565Z,5.35
2018-06-29T21:44:13.085Z,5.97
2018-06-29T21:46:43.970Z,5.83
2018-06-29T21:49:18.254Z,5.78
2018-06-29T21:52:00.553Z,5.67
2018-06-29T21:54:33.158Z,5.50
2018-06-29T21:57:12.599Z,5.60
2018-06-29T21:59:45.423Z,5.60
2018-06-29T22:02:20.811Z,5.87
2018-06-29T22:05:07.704Z,5.97
2018-06-29T22:07:42.357Z,5.92
2018-06-29T22:10:16.886Z,5.47
2018-06-29T22:12:55.351Z,4.85
2018-06-29T22:15:33.163Z,4.35
2018-06-29T22:18:12.394Z,4.30
2018-06-29T22:20:52.146Z,4.25
2018-06-29T22:23:25.306Z,4.30
2018-06-29T22:26:00.186Z,3.80
2018-06-29T22:28:33.314Z,4.20
2018-06-29T22:31:19.923Z,4.50
2018-06-29T22:33:53.243Z,4.15
2018-06-29T22:36:31.100Z,4.05
2018-06-29T22:39:16.476Z,3.92
2018-06-29T22:42:09.258Z,4.30
2018-06-29T22:44:40.166Z,4.53
2018-06-29T22:47:11.372Z,3.67
2018-06-29T22:49:46.355Z,4.28
2018-06-29T22:52:19.196Z,4.22
2018-06-29T22:54:54.000Z,3.87
2018-06-29T22:57:25.617Z,3.58
2018-06-29T22:59:56.908Z,3.85
2018-06-29T23:02:27.740Z,4.00
2018-06-29T23:04:58.777Z,3.67
2018-06-29T23:07:29.702Z,3.65
2018-06-29T23:10:00.398Z,3.35
2018-06-29T23:12:33.310Z,3.75
2018-06-29T23:15:04.187Z,4.15
2018-06-29T23:17:39.816Z,3.85
2018-06-29T23:20:12.450Z,3.85
2018-06-29T23:22:50.733Z,3.92
2018-06-29T23:25:32.229Z,3.83
2018-06-29T23:28:07.363Z,3.92
2018-06-29T23:30:50.469Z,3.62
2018-06-29T23:33:25.428Z,3.60
2018-06-29T23:35:57.939Z,3.92
2018-06-29T23:38:44.802Z,3.42
2018-06-29T23:41:20.205Z,3.70
2018-06-29T23:43:52.600Z,3.60
2018-06-29T23:46:42.817Z,4.08
2018-06-29T23:49:16.726Z,3.58
2018-06-29T23:51:52.320Z,3.67
2018-06-29T23:54:25.384Z,3.80
2018-06-29T23:56:58.480Z,3.60
2018-06-29T23:59:46.361Z,4.30
